<?xml version="1.0" encoding="UTF-8" standalone="no" ?>
<gpx xmlns="http://www.topografix.com/GPX/1/1" xmlns:xsi="http://www.w3.org/2001/XMLSchema-instance" xsi:schemaLocation="http://www.topografix.com/GPX/1/1 http://www.topografix.com/GPX/1/1/gpx.xsd" version="1.1" creator="VisuGPX - https://www.visugpx.com">
  <metadata>
    <name>Crête de la Lare</name>
    <desc><![CDATA[Itinéraire facile et bien arboré.  ]]></desc>
  </metadata>
  <trk>
    <name><![CDATA[Crête de la Lare_2]]></name>
    <trkseg>
      <trkpt lat="43.36471" lon="5.73009">
        <ele>383.8</ele>
        <time>2015-10-14T11:40:39Z</time>
      </trkpt>
      <trkpt lat="43.36472" lon="5.73008">
        <ele>383.8</ele>
        <time>2015-10-14T11:40:40Z</time>
      </trkpt>
      <trkpt lat="43.36453" lon="5.73006">
        <ele>373.1</ele>
        <time>2015-10-14T11:44:26Z</time>
      </trkpt>
      <trkpt lat="43.36427" lon="5.73034">
        <ele>379.2</ele>
        <time>2015-10-14T11:45:20Z</time>
      </trkpt>
      <trkpt lat="43.36418" lon="5.73055">
        <ele>373.8</ele>
        <time>2015-10-14T11:45:44Z</time>
      </trkpt>
      <trkpt lat="43.36417" lon="5.73056">
        <ele>374.5</ele>
        <time>2015-10-14T11:45:45Z</time>
      </trkpt>
      <trkpt lat="43.36397" lon="5.73094">
        <ele>375.2</ele>
        <time>2015-10-14T11:46:23Z</time>
      </trkpt>
      <trkpt lat="43.36382" lon="5.73105">
        <ele>379.5</ele>
        <time>2015-10-14T11:46:39Z</time>
      </trkpt>
      <trkpt lat="43.36367" lon="5.73116">
        <ele>387</ele>
        <time>2015-10-14T11:46:53Z</time>
      </trkpt>
      <trkpt lat="43.36366" lon="5.73117">
        <ele>386.5</ele>
        <time>2015-10-14T11:46:54Z</time>
      </trkpt>
      <trkpt lat="43.36341" lon="5.73095">
        <ele>387.8</ele>
        <time>2015-10-14T11:47:25Z</time>
      </trkpt>
      <trkpt lat="43.36331" lon="5.73076">
        <ele>385.7</ele>
        <time>2015-10-14T11:47:42Z</time>
      </trkpt>
      <trkpt lat="43.36317" lon="5.73061">
        <ele>380.3</ele>
        <time>2015-10-14T11:48:00Z</time>
      </trkpt>
      <trkpt lat="43.36316" lon="5.7306">
        <ele>380.6</ele>
        <time>2015-10-14T11:48:01Z</time>
      </trkpt>
      <trkpt lat="43.36286" lon="5.73039">
        <ele>367.6</ele>
        <time>2015-10-14T11:48:37Z</time>
      </trkpt>
      <trkpt lat="43.36281" lon="5.73016">
        <ele>362.7</ele>
        <time>2015-10-14T11:48:55Z</time>
      </trkpt>
      <trkpt lat="43.36274" lon="5.72995">
        <ele>364.3</ele>
        <time>2015-10-14T11:49:12Z</time>
      </trkpt>
      <trkpt lat="43.36273" lon="5.72993">
        <ele>363.7</ele>
        <time>2015-10-14T11:49:13Z</time>
      </trkpt>
      <trkpt lat="43.36266" lon="5.72948">
        <ele>368.2</ele>
        <time>2015-10-14T11:49:53Z</time>
      </trkpt>
      <trkpt lat="43.36251" lon="5.72936">
        <ele>365</ele>
        <time>2015-10-14T11:50:11Z</time>
      </trkpt>
      <trkpt lat="43.36234" lon="5.72941">
        <ele>376.7</ele>
        <time>2015-10-14T11:50:25Z</time>
      </trkpt>
      <trkpt lat="43.36233" lon="5.72942">
        <ele>377.1</ele>
        <time>2015-10-14T11:50:26Z</time>
      </trkpt>
      <trkpt lat="43.36207" lon="5.72972">
        <ele>380</ele>
        <time>2015-10-14T11:50:57Z</time>
      </trkpt>
      <trkpt lat="43.36197" lon="5.72991">
        <ele>386.1</ele>
        <time>2015-10-14T11:51:13Z</time>
      </trkpt>
      <trkpt lat="43.36182" lon="5.73004">
        <ele>386.3</ele>
        <time>2015-10-14T11:51:34Z</time>
      </trkpt>
      <trkpt lat="43.36181" lon="5.73005">
        <ele>386.5</ele>
        <time>2015-10-14T11:51:35Z</time>
      </trkpt>
      <trkpt lat="43.36155" lon="5.72991">
        <ele>383.2</ele>
        <time>2015-10-14T11:52:10Z</time>
      </trkpt>
      <trkpt lat="43.36146" lon="5.7297">
        <ele>380.2</ele>
        <time>2015-10-14T11:52:30Z</time>
      </trkpt>
      <trkpt lat="43.36132" lon="5.72955">
        <ele>385.1</ele>
        <time>2015-10-14T11:52:53Z</time>
      </trkpt>
      <trkpt lat="43.36131" lon="5.72954">
        <ele>384.8</ele>
        <time>2015-10-14T11:52:54Z</time>
      </trkpt>
      <trkpt lat="43.36097" lon="5.72961">
        <ele>387.1</ele>
        <time>2015-10-14T11:53:26Z</time>
      </trkpt>
      <trkpt lat="43.36083" lon="5.72976">
        <ele>392</ele>
        <time>2015-10-14T11:53:44Z</time>
      </trkpt>
      <trkpt lat="43.36067" lon="5.72987">
        <ele>391.6</ele>
        <time>2015-10-14T11:54:01Z</time>
      </trkpt>
      <trkpt lat="43.36066" lon="5.72988">
        <ele>392.1</ele>
        <time>2015-10-14T11:54:02Z</time>
      </trkpt>
      <trkpt lat="43.36042" lon="5.73019">
        <ele>397.7</ele>
        <time>2015-10-14T11:54:35Z</time>
      </trkpt>
      <trkpt lat="43.36032" lon="5.73039">
        <ele>395.1</ele>
        <time>2015-10-14T11:54:54Z</time>
      </trkpt>
      <trkpt lat="43.36024" lon="5.73061">
        <ele>397.2</ele>
        <time>2015-10-14T11:55:11Z</time>
      </trkpt>
      <trkpt lat="43.36023" lon="5.73062">
        <ele>397</ele>
        <time>2015-10-14T11:55:12Z</time>
      </trkpt>
      <trkpt lat="43.3602" lon="5.73108">
        <ele>398.7</ele>
        <time>2015-10-14T11:55:47Z</time>
      </trkpt>
      <trkpt lat="43.36018" lon="5.73131">
        <ele>395.7</ele>
        <time>2015-10-14T11:56:04Z</time>
      </trkpt>
      <trkpt lat="43.36018" lon="5.73155">
        <ele>393.1</ele>
        <time>2015-10-14T11:56:22Z</time>
      </trkpt>
      <trkpt lat="43.36018" lon="5.73157">
        <ele>393.7</ele>
        <time>2015-10-14T11:56:23Z</time>
      </trkpt>
      <trkpt lat="43.36015" lon="5.73204">
        <ele>395.8</ele>
        <time>2015-10-14T11:56:58Z</time>
      </trkpt>
      <trkpt lat="43.36008" lon="5.73226">
        <ele>399.6</ele>
        <time>2015-10-14T11:57:14Z</time>
      </trkpt>
      <trkpt lat="43.35997" lon="5.73244">
        <ele>402.8</ele>
        <time>2015-10-14T11:57:29Z</time>
      </trkpt>
      <trkpt lat="43.35996" lon="5.73245">
        <ele>402.8</ele>
        <time>2015-10-14T11:57:30Z</time>
      </trkpt>
      <trkpt lat="43.35989" lon="5.73199">
        <ele>392.6</ele>
        <time>2015-10-14T11:58:14Z</time>
      </trkpt>
      <trkpt lat="43.35982" lon="5.73176">
        <ele>390.5</ele>
        <time>2015-10-14T11:58:36Z</time>
      </trkpt>
      <trkpt lat="43.35982" lon="5.73174">
        <ele>391.2</ele>
        <time>2015-10-14T11:58:37Z</time>
      </trkpt>
      <trkpt lat="43.35959" lon="5.73139">
        <ele>405.7</ele>
        <time>2015-10-14T11:59:09Z</time>
      </trkpt>
      <trkpt lat="43.35943" lon="5.73129">
        <ele>407</ele>
        <time>2015-10-14T11:59:28Z</time>
      </trkpt>
      <trkpt lat="43.35926" lon="5.73125">
        <ele>406.7</ele>
        <time>2015-10-14T11:59:47Z</time>
      </trkpt>
      <trkpt lat="43.35925" lon="5.73125">
        <ele>406.3</ele>
        <time>2015-10-14T11:59:48Z</time>
      </trkpt>
      <trkpt lat="43.35891" lon="5.73126">
        <ele>430</ele>
        <time>2015-10-14T12:01:00Z</time>
      </trkpt>
      <trkpt lat="43.35891" lon="5.73127">
        <ele>428.3</ele>
        <time>2015-10-14T12:01:01Z</time>
      </trkpt>
      <trkpt lat="43.35873" lon="5.73121">
        <ele>407.6</ele>
        <time>2015-10-14T12:02:06Z</time>
      </trkpt>
      <trkpt lat="43.3584" lon="5.73108">
        <ele>408.3</ele>
        <time>2015-10-14T12:02:44Z</time>
      </trkpt>
      <trkpt lat="43.35826" lon="5.73094">
        <ele>406</ele>
        <time>2015-10-14T12:03:01Z</time>
      </trkpt>
      <trkpt lat="43.35812" lon="5.73083">
        <ele>410.7</ele>
        <time>2015-10-14T12:03:18Z</time>
      </trkpt>
      <trkpt lat="43.3581" lon="5.73082">
        <ele>410.8</ele>
        <time>2015-10-14T12:03:19Z</time>
      </trkpt>
      <trkpt lat="43.35778" lon="5.73071">
        <ele>412.5</ele>
        <time>2015-10-14T12:03:55Z</time>
      </trkpt>
      <trkpt lat="43.35764" lon="5.73058">
        <ele>413.1</ele>
        <time>2015-10-14T12:04:14Z</time>
      </trkpt>
      <trkpt lat="43.35752" lon="5.73042">
        <ele>412.2</ele>
        <time>2015-10-14T12:04:32Z</time>
      </trkpt>
      <trkpt lat="43.35751" lon="5.73041">
        <ele>412.3</ele>
        <time>2015-10-14T12:04:33Z</time>
      </trkpt>
      <trkpt lat="43.35731" lon="5.73005">
        <ele>410</ele>
        <time>2015-10-14T12:05:12Z</time>
      </trkpt>
      <trkpt lat="43.35736" lon="5.72983">
        <ele>415.8</ele>
        <time>2015-10-14T12:05:28Z</time>
      </trkpt>
      <trkpt lat="43.35744" lon="5.72961">
        <ele>422.2</ele>
        <time>2015-10-14T12:05:45Z</time>
      </trkpt>
      <trkpt lat="43.35745" lon="5.7296">
        <ele>422.7</ele>
        <time>2015-10-14T12:05:46Z</time>
      </trkpt>
      <trkpt lat="43.35743" lon="5.72914">
        <ele>412.7</ele>
        <time>2015-10-14T12:06:27Z</time>
      </trkpt>
      <trkpt lat="43.3574" lon="5.72891">
        <ele>416.8</ele>
        <time>2015-10-14T12:06:40Z</time>
      </trkpt>
      <trkpt lat="43.35737" lon="5.72868">
        <ele>415</ele>
        <time>2015-10-14T12:07:00Z</time>
      </trkpt>
      <trkpt lat="43.35737" lon="5.72866">
        <ele>414.6</ele>
        <time>2015-10-14T12:07:01Z</time>
      </trkpt>
      <trkpt lat="43.35723" lon="5.72824">
        <ele>417.7</ele>
        <time>2015-10-14T12:07:32Z</time>
      </trkpt>
      <trkpt lat="43.3571" lon="5.72806">
        <ele>419</ele>
        <time>2015-10-14T12:07:51Z</time>
      </trkpt>
      <trkpt lat="43.35698" lon="5.72789">
        <ele>422.1</ele>
        <time>2015-10-14T12:08:08Z</time>
      </trkpt>
      <trkpt lat="43.35698" lon="5.72789">
        <ele>422.2</ele>
        <time>2015-10-14T12:08:09Z</time>
      </trkpt>
      <trkpt lat="43.35666" lon="5.7277">
        <ele>419.1</ele>
        <time>2015-10-14T12:08:41Z</time>
      </trkpt>
      <trkpt lat="43.3565" lon="5.72762">
        <ele>419.2</ele>
        <time>2015-10-14T12:08:56Z</time>
      </trkpt>
      <trkpt lat="43.35634" lon="5.72752">
        <ele>422.8</ele>
        <time>2015-10-14T12:09:12Z</time>
      </trkpt>
      <trkpt lat="43.35633" lon="5.72751">
        <ele>422.7</ele>
        <time>2015-10-14T12:09:13Z</time>
      </trkpt>
      <trkpt lat="43.35603" lon="5.72731">
        <ele>414.8</ele>
        <time>2015-10-14T12:09:50Z</time>
      </trkpt>
      <trkpt lat="43.35587" lon="5.72721">
        <ele>417</ele>
        <time>2015-10-14T12:10:08Z</time>
      </trkpt>
      <trkpt lat="43.35571" lon="5.7271">
        <ele>421.3</ele>
        <time>2015-10-14T12:10:27Z</time>
      </trkpt>
      <trkpt lat="43.3557" lon="5.72708">
        <ele>421.2</ele>
        <time>2015-10-14T12:10:28Z</time>
      </trkpt>
      <trkpt lat="43.35539" lon="5.72691">
        <ele>419.6</ele>
        <time>2015-10-14T12:10:58Z</time>
      </trkpt>
      <trkpt lat="43.35523" lon="5.72682">
        <ele>426.2</ele>
        <time>2015-10-14T12:11:15Z</time>
      </trkpt>
      <trkpt lat="43.35505" lon="5.72675">
        <ele>432.5</ele>
        <time>2015-10-14T12:11:34Z</time>
      </trkpt>
      <trkpt lat="43.35505" lon="5.72674">
        <ele>431.7</ele>
        <time>2015-10-14T12:11:35Z</time>
      </trkpt>
      <trkpt lat="43.35476" lon="5.72649">
        <ele>419</ele>
        <time>2015-10-14T12:12:13Z</time>
      </trkpt>
      <trkpt lat="43.3546" lon="5.7264">
        <ele>417.6</ele>
        <time>2015-10-14T12:12:32Z</time>
      </trkpt>
      <trkpt lat="43.35445" lon="5.72629">
        <ele>412.5</ele>
        <time>2015-10-14T12:12:50Z</time>
      </trkpt>
      <trkpt lat="43.35444" lon="5.72629">
        <ele>412.3</ele>
        <time>2015-10-14T12:12:51Z</time>
      </trkpt>
      <trkpt lat="43.35426" lon="5.72588">
        <ele>428.7</ele>
        <time>2015-10-14T12:14:15Z</time>
      </trkpt>
      <trkpt lat="43.35425" lon="5.72588">
        <ele>428.3</ele>
        <time>2015-10-14T12:14:16Z</time>
      </trkpt>
      <trkpt lat="43.35409" lon="5.726">
        <ele>433.2</ele>
        <time>2015-10-14T12:17:42Z</time>
      </trkpt>
      <trkpt lat="43.35376" lon="5.72595">
        <ele>431.7</ele>
        <time>2015-10-14T12:18:17Z</time>
      </trkpt>
      <trkpt lat="43.35364" lon="5.72577">
        <ele>426.7</ele>
        <time>2015-10-14T12:18:39Z</time>
      </trkpt>
      <trkpt lat="43.35352" lon="5.72559">
        <ele>424.3</ele>
        <time>2015-10-14T12:18:57Z</time>
      </trkpt>
      <trkpt lat="43.35351" lon="5.72558">
        <ele>424.5</ele>
        <time>2015-10-14T12:18:58Z</time>
      </trkpt>
      <trkpt lat="43.3533" lon="5.72521">
        <ele>427</ele>
        <time>2015-10-14T12:19:31Z</time>
      </trkpt>
      <trkpt lat="43.35319" lon="5.72501">
        <ele>428.5</ele>
        <time>2015-10-14T12:19:48Z</time>
      </trkpt>
      <trkpt lat="43.35313" lon="5.72478">
        <ele>422.2</ele>
        <time>2015-10-14T12:20:09Z</time>
      </trkpt>
      <trkpt lat="43.35313" lon="5.72477">
        <ele>422.2</ele>
        <time>2015-10-14T12:20:10Z</time>
      </trkpt>
      <trkpt lat="43.3531" lon="5.72431">
        <ele>424.5</ele>
        <time>2015-10-14T12:20:37Z</time>
      </trkpt>
      <trkpt lat="43.3531" lon="5.72407">
        <ele>423.3</ele>
        <time>2015-10-14T12:20:54Z</time>
      </trkpt>
      <trkpt lat="43.35306" lon="5.72383">
        <ele>412.7</ele>
        <time>2015-10-14T12:21:16Z</time>
      </trkpt>
      <trkpt lat="43.35306" lon="5.72382">
        <ele>412.2</ele>
        <time>2015-10-14T12:21:17Z</time>
      </trkpt>
      <trkpt lat="43.35308" lon="5.72336">
        <ele>393</ele>
        <time>2015-10-14T12:21:57Z</time>
      </trkpt>
      <trkpt lat="43.35312" lon="5.72313">
        <ele>388</ele>
        <time>2015-10-14T12:22:15Z</time>
      </trkpt>
      <trkpt lat="43.35308" lon="5.72289">
        <ele>380.3</ele>
        <time>2015-10-14T12:22:39Z</time>
      </trkpt>
      <trkpt lat="43.35308" lon="5.72288">
        <ele>380.3</ele>
        <time>2015-10-14T12:22:40Z</time>
      </trkpt>
      <trkpt lat="43.35288" lon="5.7225">
        <ele>371.5</ele>
        <time>2015-10-14T12:23:19Z</time>
      </trkpt>
      <trkpt lat="43.35275" lon="5.72237">
        <ele>372.2</ele>
        <time>2015-10-14T12:23:37Z</time>
      </trkpt>
      <trkpt lat="43.35263" lon="5.72219">
        <ele>375.3</ele>
        <time>2015-10-14T12:23:51Z</time>
      </trkpt>
      <trkpt lat="43.35263" lon="5.72218">
        <ele>375</ele>
        <time>2015-10-14T12:23:52Z</time>
      </trkpt>
      <trkpt lat="43.35232" lon="5.72198">
        <ele>372.1</ele>
        <time>2015-10-14T12:24:24Z</time>
      </trkpt>
      <trkpt lat="43.35217" lon="5.72186">
        <ele>373.6</ele>
        <time>2015-10-14T12:24:39Z</time>
      </trkpt>
      <trkpt lat="43.35202" lon="5.72173">
        <ele>374.5</ele>
        <time>2015-10-14T12:24:54Z</time>
      </trkpt>
      <trkpt lat="43.35201" lon="5.72173">
        <ele>374.2</ele>
        <time>2015-10-14T12:24:55Z</time>
      </trkpt>
      <trkpt lat="43.35175" lon="5.72144">
        <ele>379.6</ele>
        <time>2015-10-14T12:25:21Z</time>
      </trkpt>
      <trkpt lat="43.35162" lon="5.72127">
        <ele>385.2</ele>
        <time>2015-10-14T12:25:36Z</time>
      </trkpt>
      <trkpt lat="43.35151" lon="5.72109">
        <ele>398.5</ele>
        <time>2015-10-14T12:25:49Z</time>
      </trkpt>
      <trkpt lat="43.35141" lon="5.72088">
        <ele>421.3</ele>
        <time>2015-10-14T12:26:00Z</time>
      </trkpt>
      <trkpt lat="43.35141" lon="5.72087">
        <ele>422.7</ele>
        <time>2015-10-14T12:26:01Z</time>
      </trkpt>
      <trkpt lat="43.35113" lon="5.7206">
        <ele>452.7</ele>
        <time>2015-10-14T12:26:27Z</time>
      </trkpt>
      <trkpt lat="43.35096" lon="5.72064">
        <ele>453.7</ele>
        <time>2015-10-14T12:26:47Z</time>
      </trkpt>
      <trkpt lat="43.35078" lon="5.7206">
        <ele>454.2</ele>
        <time>2015-10-14T12:27:09Z</time>
      </trkpt>
      <trkpt lat="43.35077" lon="5.7206">
        <ele>454</ele>
        <time>2015-10-14T12:27:10Z</time>
      </trkpt>
      <trkpt lat="43.35047" lon="5.72038">
        <ele>460.5</ele>
        <time>2015-10-14T12:27:52Z</time>
      </trkpt>
      <trkpt lat="43.3503" lon="5.72031">
        <ele>458.3</ele>
        <time>2015-10-14T12:28:14Z</time>
      </trkpt>
      <trkpt lat="43.35028" lon="5.7203">
        <ele>459.7</ele>
        <time>2015-10-14T12:28:15Z</time>
      </trkpt>
      <trkpt lat="43.34995" lon="5.72033">
        <ele>463.8</ele>
        <time>2015-10-14T12:28:55Z</time>
      </trkpt>
      <trkpt lat="43.34978" lon="5.72037">
        <ele>471</ele>
        <time>2015-10-14T12:29:15Z</time>
      </trkpt>
      <trkpt lat="43.34977" lon="5.72037">
        <ele>471.3</ele>
        <time>2015-10-14T12:29:16Z</time>
      </trkpt>
      <trkpt lat="43.34945" lon="5.72043">
        <ele>473</ele>
        <time>2015-10-14T12:29:55Z</time>
      </trkpt>
      <trkpt lat="43.34928" lon="5.72053">
        <ele>474.7</ele>
        <time>2015-10-14T12:30:22Z</time>
      </trkpt>
      <trkpt lat="43.34928" lon="5.72053">
        <ele>475.6</ele>
        <time>2015-10-14T12:30:23Z</time>
      </trkpt>
      <trkpt lat="43.34916" lon="5.72008">
        <ele>468</ele>
        <time>2015-10-14T12:31:44Z</time>
      </trkpt>
      <trkpt lat="43.34916" lon="5.72007">
        <ele>467.6</ele>
        <time>2015-10-14T12:31:45Z</time>
      </trkpt>
      <trkpt lat="43.34897" lon="5.71967">
        <ele>466.3</ele>
        <time>2015-10-14T12:32:33Z</time>
      </trkpt>
      <trkpt lat="43.34896" lon="5.71943">
        <ele>474.7</ele>
        <time>2015-10-14T12:32:54Z</time>
      </trkpt>
      <trkpt lat="43.34896" lon="5.71941">
        <ele>475.5</ele>
        <time>2015-10-14T12:32:55Z</time>
      </trkpt>
      <trkpt lat="43.34907" lon="5.71898">
        <ele>486.6</ele>
        <time>2015-10-14T12:33:31Z</time>
      </trkpt>
      <trkpt lat="43.34914" lon="5.71876">
        <ele>500.7</ele>
        <time>2015-10-14T12:33:46Z</time>
      </trkpt>
      <trkpt lat="43.34916" lon="5.71851">
        <ele>503</ele>
        <time>2015-10-14T12:34:08Z</time>
      </trkpt>
      <trkpt lat="43.34916" lon="5.71851">
        <ele>502.2</ele>
        <time>2015-10-14T12:34:09Z</time>
      </trkpt>
      <trkpt lat="43.34921" lon="5.71805">
        <ele>514</ele>
        <time>2015-10-14T12:34:50Z</time>
      </trkpt>
      <trkpt lat="43.34923" lon="5.71781">
        <ele>518.2</ele>
        <time>2015-10-14T12:35:14Z</time>
      </trkpt>
      <trkpt lat="43.34922" lon="5.7178">
        <ele>518.7</ele>
        <time>2015-10-14T12:35:15Z</time>
      </trkpt>
      <trkpt lat="43.34923" lon="5.71756">
        <ele>519.9</ele>
        <time>2015-10-14T12:39:44Z</time>
      </trkpt>
      <trkpt lat="43.34923" lon="5.71708">
        <ele>517.7</ele>
        <time>2015-10-14T12:40:19Z</time>
      </trkpt>
      <trkpt lat="43.3492" lon="5.71685">
        <ele>516</ele>
        <time>2015-10-14T12:40:34Z</time>
      </trkpt>
      <trkpt lat="43.34916" lon="5.71662">
        <ele>509.1</ele>
        <time>2015-10-14T12:40:53Z</time>
      </trkpt>
      <trkpt lat="43.34915" lon="5.71661">
        <ele>508.7</ele>
        <time>2015-10-14T12:40:54Z</time>
      </trkpt>
      <trkpt lat="43.34899" lon="5.7162">
        <ele>499.1</ele>
        <time>2015-10-14T12:41:26Z</time>
      </trkpt>
      <trkpt lat="43.34887" lon="5.71602">
        <ele>503</ele>
        <time>2015-10-14T12:41:38Z</time>
      </trkpt>
      <trkpt lat="43.34873" lon="5.71587">
        <ele>510.2</ele>
        <time>2015-10-14T12:41:50Z</time>
      </trkpt>
      <trkpt lat="43.34856" lon="5.71584">
        <ele>509.6</ele>
        <time>2015-10-14T12:42:05Z</time>
      </trkpt>
      <trkpt lat="43.34855" lon="5.71584">
        <ele>509.6</ele>
        <time>2015-10-14T12:42:06Z</time>
      </trkpt>
      <trkpt lat="43.34822" lon="5.71585">
        <ele>510.2</ele>
        <time>2015-10-14T12:42:33Z</time>
      </trkpt>
      <trkpt lat="43.34804" lon="5.71588">
        <ele>509.2</ele>
        <time>2015-10-14T12:42:48Z</time>
      </trkpt>
      <trkpt lat="43.34788" lon="5.71594">
        <ele>507.6</ele>
        <time>2015-10-14T12:43:04Z</time>
      </trkpt>
      <trkpt lat="43.3477" lon="5.71597">
        <ele>508.2</ele>
        <time>2015-10-14T12:43:18Z</time>
      </trkpt>
      <trkpt lat="43.34769" lon="5.71598">
        <ele>508.2</ele>
        <time>2015-10-14T12:43:19Z</time>
      </trkpt>
      <trkpt lat="43.34736" lon="5.71605">
        <ele>505.7</ele>
        <time>2015-10-14T12:43:51Z</time>
      </trkpt>
      <trkpt lat="43.34718" lon="5.71605">
        <ele>510.2</ele>
        <time>2015-10-14T12:44:07Z</time>
      </trkpt>
      <trkpt lat="43.34701" lon="5.71607">
        <ele>509.7</ele>
        <time>2015-10-14T12:44:23Z</time>
      </trkpt>
      <trkpt lat="43.347" lon="5.71607">
        <ele>509.8</ele>
        <time>2015-10-14T12:44:24Z</time>
      </trkpt>
      <trkpt lat="43.34689" lon="5.71584">
        <ele>518</ele>
        <time>2015-10-14T12:45:59Z</time>
      </trkpt>
      <trkpt lat="43.34689" lon="5.71583">
        <ele>518</ele>
        <time>2015-10-14T12:46:00Z</time>
      </trkpt>
      <trkpt lat="43.34718" lon="5.71557">
        <ele>520.2</ele>
        <time>2015-10-14T12:46:36Z</time>
      </trkpt>
      <trkpt lat="43.34732" lon="5.71542">
        <ele>518.5</ele>
        <time>2015-10-14T12:46:54Z</time>
      </trkpt>
      <trkpt lat="43.34744" lon="5.71524">
        <ele>519.2</ele>
        <time>2015-10-14T12:47:13Z</time>
      </trkpt>
      <trkpt lat="43.34744" lon="5.71523">
        <ele>519.2</ele>
        <time>2015-10-14T12:47:14Z</time>
      </trkpt>
      <trkpt lat="43.34765" lon="5.71487">
        <ele>517.4</ele>
        <time>2015-10-14T12:47:46Z</time>
      </trkpt>
      <trkpt lat="43.34771" lon="5.71465">
        <ele>518.2</ele>
        <time>2015-10-14T12:48:00Z</time>
      </trkpt>
      <trkpt lat="43.34779" lon="5.71444">
        <ele>516.9</ele>
        <time>2015-10-14T12:48:15Z</time>
      </trkpt>
      <trkpt lat="43.3478" lon="5.71443">
        <ele>517</ele>
        <time>2015-10-14T12:48:16Z</time>
      </trkpt>
      <trkpt lat="43.34799" lon="5.71405">
        <ele>513.7</ele>
        <time>2015-10-14T12:48:46Z</time>
      </trkpt>
      <trkpt lat="43.348" lon="5.71382">
        <ele>511.3</ele>
        <time>2015-10-14T12:49:02Z</time>
      </trkpt>
      <trkpt lat="43.34793" lon="5.71359">
        <ele>510.6</ele>
        <time>2015-10-14T12:49:17Z</time>
      </trkpt>
      <trkpt lat="43.34793" lon="5.71358">
        <ele>510.3</ele>
        <time>2015-10-14T12:49:18Z</time>
      </trkpt>
      <trkpt lat="43.3477" lon="5.71324">
        <ele>505.8</ele>
        <time>2015-10-14T12:49:53Z</time>
      </trkpt>
      <trkpt lat="43.34758" lon="5.71307">
        <ele>507.2</ele>
        <time>2015-10-14T12:50:09Z</time>
      </trkpt>
      <trkpt lat="43.34745" lon="5.71291">
        <ele>510.7</ele>
        <time>2015-10-14T12:50:26Z</time>
      </trkpt>
      <trkpt lat="43.34744" lon="5.7129">
        <ele>511.3</ele>
        <time>2015-10-14T12:50:27Z</time>
      </trkpt>
      <trkpt lat="43.34717" lon="5.71262">
        <ele>518.2</ele>
        <time>2015-10-14T12:51:02Z</time>
      </trkpt>
      <trkpt lat="43.34706" lon="5.71243">
        <ele>517.2</ele>
        <time>2015-10-14T12:51:21Z</time>
      </trkpt>
      <trkpt lat="43.34703" lon="5.7122">
        <ele>519.7</ele>
        <time>2015-10-14T12:51:37Z</time>
      </trkpt>
      <trkpt lat="43.34703" lon="5.71218">
        <ele>520.5</ele>
        <time>2015-10-14T12:51:38Z</time>
      </trkpt>
      <trkpt lat="43.34732" lon="5.71202">
        <ele>525.9</ele>
        <time>2015-10-14T12:52:19Z</time>
      </trkpt>
      <trkpt lat="43.34749" lon="5.71197">
        <ele>526.4</ele>
        <time>2015-10-14T12:52:34Z</time>
      </trkpt>
      <trkpt lat="43.34765" lon="5.71188">
        <ele>527</ele>
        <time>2015-10-14T12:52:52Z</time>
      </trkpt>
      <trkpt lat="43.34766" lon="5.71188">
        <ele>527.2</ele>
        <time>2015-10-14T12:52:53Z</time>
      </trkpt>
      <trkpt lat="43.34799" lon="5.71193">
        <ele>534.2</ele>
        <time>2015-10-14T12:53:21Z</time>
      </trkpt>
      <trkpt lat="43.34814" lon="5.71181">
        <ele>535.5</ele>
        <time>2015-10-14T12:53:45Z</time>
      </trkpt>
      <trkpt lat="43.34826" lon="5.71163">
        <ele>536.7</ele>
        <time>2015-10-14T12:54:08Z</time>
      </trkpt>
      <trkpt lat="43.34826" lon="5.71162">
        <ele>536.7</ele>
        <time>2015-10-14T12:54:09Z</time>
      </trkpt>
      <trkpt lat="43.34824" lon="5.71115">
        <ele>527.2</ele>
        <time>2015-10-14T12:55:11Z</time>
      </trkpt>
      <trkpt lat="43.34824" lon="5.71114">
        <ele>526.5</ele>
        <time>2015-10-14T12:55:12Z</time>
      </trkpt>
      <trkpt lat="43.34811" lon="5.71073">
        <ele>539.9</ele>
        <time>2015-10-14T12:55:43Z</time>
      </trkpt>
      <trkpt lat="43.34797" lon="5.71058">
        <ele>543.5</ele>
        <time>2015-10-14T12:55:59Z</time>
      </trkpt>
      <trkpt lat="43.34784" lon="5.71043">
        <ele>536.5</ele>
        <time>2015-10-14T12:56:19Z</time>
      </trkpt>
      <trkpt lat="43.34783" lon="5.71042">
        <ele>536.7</ele>
        <time>2015-10-14T12:56:20Z</time>
      </trkpt>
      <trkpt lat="43.34763" lon="5.71006">
        <ele>542.7</ele>
        <time>2015-10-14T12:56:53Z</time>
      </trkpt>
      <trkpt lat="43.34747" lon="5.70993">
        <ele>539.7</ele>
        <time>2015-10-14T12:57:16Z</time>
      </trkpt>
      <trkpt lat="43.34737" lon="5.70974">
        <ele>549</ele>
        <time>2015-10-14T12:57:30Z</time>
      </trkpt>
      <trkpt lat="43.34736" lon="5.70973">
        <ele>548.5</ele>
        <time>2015-10-14T12:57:31Z</time>
      </trkpt>
      <trkpt lat="43.34717" lon="5.70935">
        <ele>557.9</ele>
        <time>2015-10-14T12:58:01Z</time>
      </trkpt>
      <trkpt lat="43.34709" lon="5.70913">
        <ele>561.7</ele>
        <time>2015-10-14T12:58:20Z</time>
      </trkpt>
      <trkpt lat="43.34708" lon="5.70889">
        <ele>551.5</ele>
        <time>2015-10-14T12:58:53Z</time>
      </trkpt>
      <trkpt lat="43.34708" lon="5.70887">
        <ele>551</ele>
        <time>2015-10-14T12:58:54Z</time>
      </trkpt>
      <trkpt lat="43.34717" lon="5.70842">
        <ele>551.7</ele>
        <time>2015-10-14T12:59:31Z</time>
      </trkpt>
      <trkpt lat="43.34712" lon="5.70819">
        <ele>573.4</ele>
        <time>2015-10-14T12:59:56Z</time>
      </trkpt>
      <trkpt lat="43.34712" lon="5.70818">
        <ele>574.5</ele>
        <time>2015-10-14T12:59:57Z</time>
      </trkpt>
      <trkpt lat="43.34715" lon="5.70793">
        <ele>571.9</ele>
        <time>2015-10-14T13:01:03Z</time>
      </trkpt>
      <trkpt lat="43.34709" lon="5.7079">
        <ele>561.2</ele>
        <time>2015-10-14T13:02:18Z</time>
      </trkpt>
      <trkpt lat="43.34708" lon="5.7079">
        <ele>560.2</ele>
        <time>2015-10-14T13:02:19Z</time>
      </trkpt>
      <trkpt lat="43.34703" lon="5.70838">
        <ele>528.2</ele>
        <time>2015-10-14T13:03:07Z</time>
      </trkpt>
      <trkpt lat="43.347" lon="5.70861">
        <ele>529.7</ele>
        <time>2015-10-14T13:03:24Z</time>
      </trkpt>
      <trkpt lat="43.34699" lon="5.70865">
        <ele>535.5</ele>
        <time>2015-10-14T13:03:25Z</time>
      </trkpt>
      <trkpt lat="43.34677" lon="5.70831">
        <ele>569.4</ele>
        <time>2015-10-14T13:04:33Z</time>
      </trkpt>
      <trkpt lat="43.34677" lon="5.70831">
        <ele>568.5</ele>
        <time>2015-10-14T13:04:34Z</time>
      </trkpt>
      <trkpt lat="43.34661" lon="5.7079">
        <ele>552.5</ele>
        <time>2015-10-14T13:05:21Z</time>
      </trkpt>
      <trkpt lat="43.34649" lon="5.70772">
        <ele>554.5</ele>
        <time>2015-10-14T13:05:42Z</time>
      </trkpt>
      <trkpt lat="43.34649" lon="5.70772">
        <ele>554</ele>
        <time>2015-10-14T13:05:43Z</time>
      </trkpt>
      <trkpt lat="43.34618" lon="5.70749">
        <ele>573</ele>
        <time>2015-10-14T13:06:30Z</time>
      </trkpt>
      <trkpt lat="43.34607" lon="5.7073">
        <ele>568.5</ele>
        <time>2015-10-14T13:06:49Z</time>
      </trkpt>
      <trkpt lat="43.34606" lon="5.7073">
        <ele>568.7</ele>
        <time>2015-10-14T13:06:50Z</time>
      </trkpt>
      <trkpt lat="43.34591" lon="5.70688">
        <ele>562</ele>
        <time>2015-10-14T13:07:30Z</time>
      </trkpt>
      <trkpt lat="43.34591" lon="5.70663">
        <ele>559.7</ele>
        <time>2015-10-14T13:07:56Z</time>
      </trkpt>
      <trkpt lat="43.34591" lon="5.70662">
        <ele>559.7</ele>
        <time>2015-10-14T13:07:57Z</time>
      </trkpt>
      <trkpt lat="43.3458" lon="5.7062">
        <ele>555.9</ele>
        <time>2015-10-14T13:08:29Z</time>
      </trkpt>
      <trkpt lat="43.34569" lon="5.706">
        <ele>559.2</ele>
        <time>2015-10-14T13:08:44Z</time>
      </trkpt>
      <trkpt lat="43.34556" lon="5.70584">
        <ele>561.2</ele>
        <time>2015-10-14T13:09:00Z</time>
      </trkpt>
      <trkpt lat="43.34555" lon="5.70583">
        <ele>561.2</ele>
        <time>2015-10-14T13:09:01Z</time>
      </trkpt>
      <trkpt lat="43.34528" lon="5.70558">
        <ele>564.7</ele>
        <time>2015-10-14T13:09:42Z</time>
      </trkpt>
      <trkpt lat="43.34511" lon="5.7055">
        <ele>564.5</ele>
        <time>2015-10-14T13:09:59Z</time>
      </trkpt>
      <trkpt lat="43.34496" lon="5.70538">
        <ele>564.9</ele>
        <time>2015-10-14T13:10:18Z</time>
      </trkpt>
      <trkpt lat="43.34496" lon="5.70537">
        <ele>565</ele>
        <time>2015-10-14T13:10:19Z</time>
      </trkpt>
      <trkpt lat="43.34469" lon="5.70509">
        <ele>567.9</ele>
        <time>2015-10-14T13:10:52Z</time>
      </trkpt>
      <trkpt lat="43.34452" lon="5.70502">
        <ele>572.7</ele>
        <time>2015-10-14T13:11:15Z</time>
      </trkpt>
      <trkpt lat="43.34437" lon="5.70515">
        <ele>577</ele>
        <time>2015-10-14T13:11:35Z</time>
      </trkpt>
      <trkpt lat="43.34436" lon="5.70515">
        <ele>577</ele>
        <time>2015-10-14T13:11:36Z</time>
      </trkpt>
      <trkpt lat="43.34402" lon="5.70525">
        <ele>595.7</ele>
        <time>2015-10-14T13:13:59Z</time>
      </trkpt>
      <trkpt lat="43.34402" lon="5.70525">
        <ele>596.2</ele>
        <time>2015-10-14T13:14:00Z</time>
      </trkpt>
      <trkpt lat="43.34393" lon="5.70547">
        <ele>592.5</ele>
        <time>2015-10-14T13:16:12Z</time>
      </trkpt>
      <trkpt lat="43.34392" lon="5.70542">
        <ele>595.2</ele>
        <time>2015-10-14T13:19:32Z</time>
      </trkpt>
      <trkpt lat="43.34393" lon="5.70542">
        <ele>595</ele>
        <time>2015-10-14T13:19:33Z</time>
      </trkpt>
      <trkpt lat="43.34424" lon="5.70524">
        <ele>586.2</ele>
        <time>2015-10-14T13:20:24Z</time>
      </trkpt>
      <trkpt lat="43.34436" lon="5.70507">
        <ele>579.5</ele>
        <time>2015-10-14T13:20:45Z</time>
      </trkpt>
      <trkpt lat="43.34438" lon="5.70507">
        <ele>579.7</ele>
        <time>2015-10-14T13:20:46Z</time>
      </trkpt>
      <trkpt lat="43.34466" lon="5.70485">
        <ele>579.7</ele>
        <time>2015-10-14T13:21:20Z</time>
      </trkpt>
      <trkpt lat="43.34482" lon="5.70476">
        <ele>584.2</ele>
        <time>2015-10-14T13:21:37Z</time>
      </trkpt>
      <trkpt lat="43.34499" lon="5.70468">
        <ele>587.9</ele>
        <time>2015-10-14T13:21:54Z</time>
      </trkpt>
      <trkpt lat="43.34499" lon="5.70467">
        <ele>588</ele>
        <time>2015-10-14T13:21:55Z</time>
      </trkpt>
      <trkpt lat="43.34495" lon="5.70441">
        <ele>581.7</ele>
        <time>2015-10-14T13:22:48Z</time>
      </trkpt>
      <trkpt lat="43.34478" lon="5.70435">
        <ele>578.2</ele>
        <time>2015-10-14T13:23:12Z</time>
      </trkpt>
      <trkpt lat="43.34477" lon="5.70434">
        <ele>578</ele>
        <time>2015-10-14T13:23:13Z</time>
      </trkpt>
      <trkpt lat="43.34453" lon="5.70401">
        <ele>590.7</ele>
        <time>2015-10-14T13:24:18Z</time>
      </trkpt>
      <trkpt lat="43.34452" lon="5.70401">
        <ele>591.2</ele>
        <time>2015-10-14T13:24:19Z</time>
      </trkpt>
      <trkpt lat="43.34438" lon="5.70358">
        <ele>599.5</ele>
        <time>2015-10-14T13:25:35Z</time>
      </trkpt>
      <trkpt lat="43.34437" lon="5.70357">
        <ele>599.4</ele>
        <time>2015-10-14T13:25:36Z</time>
      </trkpt>
      <trkpt lat="43.34426" lon="5.70315">
        <ele>606.7</ele>
        <time>2015-10-14T13:26:59Z</time>
      </trkpt>
      <trkpt lat="43.34425" lon="5.70313">
        <ele>608.5</ele>
        <time>2015-10-14T13:27:00Z</time>
      </trkpt>
      <trkpt lat="43.34419" lon="5.70267">
        <ele>610.2</ele>
        <time>2015-10-14T13:28:01Z</time>
      </trkpt>
      <trkpt lat="43.34418" lon="5.70266">
        <ele>610</ele>
        <time>2015-10-14T13:28:02Z</time>
      </trkpt>
      <trkpt lat="43.34413" lon="5.70218">
        <ele>615.5</ele>
        <time>2015-10-14T13:29:14Z</time>
      </trkpt>
      <trkpt lat="43.34413" lon="5.70218">
        <ele>615.5</ele>
        <time>2015-10-14T13:29:15Z</time>
      </trkpt>
      <trkpt lat="43.34404" lon="5.70196">
        <ele>634.2</ele>
        <time>2015-10-14T13:30:37Z</time>
      </trkpt>
      <trkpt lat="43.34394" lon="5.70176">
        <ele>629</ele>
        <time>2015-10-14T13:32:20Z</time>
      </trkpt>
      <trkpt lat="43.34368" lon="5.70144">
        <ele>619.9</ele>
        <time>2015-10-14T13:33:12Z</time>
      </trkpt>
      <trkpt lat="43.34353" lon="5.70132">
        <ele>629.5</ele>
        <time>2015-10-14T13:33:38Z</time>
      </trkpt>
      <trkpt lat="43.34353" lon="5.70132">
        <ele>629.5</ele>
        <time>2015-10-14T13:33:39Z</time>
      </trkpt>
      <trkpt lat="43.34328" lon="5.70097">
        <ele>636</ele>
        <time>2015-10-14T13:34:33Z</time>
      </trkpt>
      <trkpt lat="43.34316" lon="5.70079">
        <ele>636.4</ele>
        <time>2015-10-14T13:35:09Z</time>
      </trkpt>
      <trkpt lat="43.34316" lon="5.70079">
        <ele>636.4</ele>
        <time>2015-10-14T13:35:10Z</time>
      </trkpt>
      <trkpt lat="43.34287" lon="5.70053">
        <ele>646.7</ele>
        <time>2015-10-14T13:36:04Z</time>
      </trkpt>
      <trkpt lat="43.34269" lon="5.7005">
        <ele>648.5</ele>
        <time>2015-10-14T13:36:35Z</time>
      </trkpt>
      <trkpt lat="43.34269" lon="5.7005">
        <ele>648.5</ele>
        <time>2015-10-14T13:36:36Z</time>
      </trkpt>
      <trkpt lat="43.34244" lon="5.70019">
        <ele>649.7</ele>
        <time>2015-10-14T13:37:18Z</time>
      </trkpt>
      <trkpt lat="43.34231" lon="5.70003">
        <ele>649</ele>
        <time>2015-10-14T13:37:42Z</time>
      </trkpt>
      <trkpt lat="43.3423" lon="5.70002">
        <ele>649</ele>
        <time>2015-10-14T13:37:43Z</time>
      </trkpt>
      <trkpt lat="43.34207" lon="5.69969">
        <ele>656.9</ele>
        <time>2015-10-14T13:38:27Z</time>
      </trkpt>
      <trkpt lat="43.34197" lon="5.69949">
        <ele>658.7</ele>
        <time>2015-10-14T13:38:47Z</time>
      </trkpt>
      <trkpt lat="43.34196" lon="5.69948">
        <ele>658.5</ele>
        <time>2015-10-14T13:38:48Z</time>
      </trkpt>
      <trkpt lat="43.3418" lon="5.69906">
        <ele>654.5</ele>
        <time>2015-10-14T13:39:33Z</time>
      </trkpt>
      <trkpt lat="43.3417" lon="5.69886">
        <ele>658.5</ele>
        <time>2015-10-14T13:39:53Z</time>
      </trkpt>
      <trkpt lat="43.34169" lon="5.69885">
        <ele>658.4</ele>
        <time>2015-10-14T13:39:54Z</time>
      </trkpt>
      <trkpt lat="43.3415" lon="5.69851">
        <ele>660</ele>
        <time>2015-10-14T13:40:28Z</time>
      </trkpt>
      <trkpt lat="43.34141" lon="5.69831">
        <ele>657.9</ele>
        <time>2015-10-14T13:40:45Z</time>
      </trkpt>
      <trkpt lat="43.34127" lon="5.69817">
        <ele>658</ele>
        <time>2015-10-14T13:41:06Z</time>
      </trkpt>
      <trkpt lat="43.34126" lon="5.69816">
        <ele>657.9</ele>
        <time>2015-10-14T13:41:07Z</time>
      </trkpt>
      <trkpt lat="43.34104" lon="5.69781">
        <ele>659.7</ele>
        <time>2015-10-14T13:41:38Z</time>
      </trkpt>
      <trkpt lat="43.34091" lon="5.69765">
        <ele>666</ele>
        <time>2015-10-14T13:41:53Z</time>
      </trkpt>
      <trkpt lat="43.34079" lon="5.69748">
        <ele>667.5</ele>
        <time>2015-10-14T13:42:09Z</time>
      </trkpt>
      <trkpt lat="43.34078" lon="5.69748">
        <ele>667.5</ele>
        <time>2015-10-14T13:42:10Z</time>
      </trkpt>
      <trkpt lat="43.34058" lon="5.69786">
        <ele>663.5</ele>
        <time>2015-10-14T13:42:51Z</time>
      </trkpt>
      <trkpt lat="43.34053" lon="5.69809">
        <ele>664.7</ele>
        <time>2015-10-14T13:43:07Z</time>
      </trkpt>
      <trkpt lat="43.34056" lon="5.69833">
        <ele>666.5</ele>
        <time>2015-10-14T13:43:24Z</time>
      </trkpt>
      <trkpt lat="43.34056" lon="5.69834">
        <ele>666.4</ele>
        <time>2015-10-14T13:43:25Z</time>
      </trkpt>
      <trkpt lat="43.34042" lon="5.69872">
        <ele>666.7</ele>
        <time>2015-10-14T13:44:01Z</time>
      </trkpt>
      <trkpt lat="43.34028" lon="5.69886">
        <ele>664.2</ele>
        <time>2015-10-14T13:44:19Z</time>
      </trkpt>
      <trkpt lat="43.34014" lon="5.69898">
        <ele>662.2</ele>
        <time>2015-10-14T13:44:35Z</time>
      </trkpt>
      <trkpt lat="43.34013" lon="5.69898">
        <ele>661.9</ele>
        <time>2015-10-14T13:44:36Z</time>
      </trkpt>
      <trkpt lat="43.34001" lon="5.6994">
        <ele>659.5</ele>
        <time>2015-10-14T13:45:08Z</time>
      </trkpt>
      <trkpt lat="43.3399" lon="5.69958">
        <ele>659.2</ele>
        <time>2015-10-14T13:45:25Z</time>
      </trkpt>
      <trkpt lat="43.33973" lon="5.69955">
        <ele>658.2</ele>
        <time>2015-10-14T13:45:45Z</time>
      </trkpt>
      <trkpt lat="43.33972" lon="5.69955">
        <ele>658.4</ele>
        <time>2015-10-14T13:45:46Z</time>
      </trkpt>
    </trkseg>
  </trk>
</gpx>